aviador You're here:

CWHN Decoded Metar

JIMMY LAKE in SK, CANADA
Report Time2017-12-11 22:00:00
UTC Time2017-12-11 22:58:37
Flight Rules vfr VFR
Wind220° at 05 kt
W.Rank220° ranks 10
Current wind is above 220° avg. (4.7)
Visibility9999 m
Phenomena:N/A
Clouds:N/A
Expected CloudBase > 2,400 ft AGL from Temp-Dew spread
CeilingNone
Temp01°C (ISA -10)
Dew Point-5°C (65% RH)
AAT-3.4°C
QNH1021 hPa
Density Alt686 ft
Elevation2,087 ft
Report Wrong Elevation
Raw Report
METAR CWHN 112200Z AUTO 22005KT 180V250 9SM CLR 01/M05 A3014 RMK SLP238=

Extra information for CWHN:More info

Metar Taf Metar & Taf Last 4 Metars F.Rules Stats Wind Profile Meteogram Temp Stats Airport Information Weather charts Add Link Nearby VenuesMetar ALERT Operation Metar Decoded Social comments